createdAt,value
2017-11-09T00:02:00.942Z,71.90
2017-11-09T00:04:33.276Z,71.90
2017-11-09T00:06:59.473Z,72.20
2017-11-09T00:09:26.394Z,71.80
2017-11-09T00:11:53.414Z,71.80
2017-11-09T00:14:19.590Z,71.70
2017-11-09T00:16:46.528Z,72.50
2017-11-09T00:19:13.474Z,72.50
2017-11-09T00:21:39.670Z,72.30
2017-11-09T00:24:05.846Z,72.10
2017-11-09T00:26:33.554Z,71.50
2017-11-09T00:28:59.734Z,71.30
2017-11-09T00:31:25.949Z,71.00
2017-11-09T00:33:52.131Z,71.50
2017-11-09T00:36:19.861Z,71.70
2017-11-09T00:38:46.009Z,71.70
2017-11-09T00:41:12.217Z,71.70
2017-11-09T00:43:38.395Z,70.90
2017-11-09T00:46:05.311Z,71.20
2017-11-09T00:48:31.499Z,71.00
2017-11-09T00:50:57.681Z,71.40
2017-11-09T00:53:23.855Z,71.30
2017-11-09T00:55:50.802Z,71.70
2017-11-09T00:58:17.742Z,72.70
2017-11-09T01:00:43.914Z,72.00
2017-11-09T01:03:10.106Z,72.30
2017-11-09T01:05:36.277Z,72.20
2017-11-09T01:08:02.452Z,72.00
2017-11-09T01:10:28.642Z,71.20
2017-11-09T01:12:55.044Z,71.00
2017-11-09T01:15:21.251Z,71.20
2017-11-09T01:17:47.490Z,71.40
2017-11-09T01:20:15.156Z,72.40
2017-11-09T01:22:41.311Z,72.00
2017-11-09T01:25:09.006Z,71.50
2017-11-09T01:27:35.918Z,71.20
2017-11-09T01:30:02.126Z,71.20
2017-11-09T01:32:29.116Z,72.00
2017-11-09T01:34:56.045Z,71.60
2017-11-09T01:37:22.239Z,71.50
2017-11-09T01:39:48.428Z,71.60
2017-11-09T01:42:14.623Z,72.00
2017-11-09T01:44:40.817Z,72.20
2017-11-09T01:47:07.751Z,73.40
2017-11-09T01:49:34.675Z,73.70
2017-11-09T01:52:00.866Z,73.60
2017-11-09T01:54:27.082Z,69.30
2017-11-09T01:56:53.994Z,71.50
2017-11-09T01:59:20.180Z,71.40
2017-11-09T02:01:47.091Z,72.70
2017-11-09T02:04:14.028Z,73.00
2017-11-09T02:06:40.238Z,72.90
2017-11-09T02:09:06.470Z,73.50
2017-11-09T02:11:32.701Z,71.40
2017-11-09T02:13:59.157Z,72.50
2017-11-09T02:16:25.350Z,73.70
2017-11-09T02:18:51.551Z,73.80
2017-11-09T02:21:18.502Z,74.80
2017-11-09T02:23:44.689Z,74.60
2017-11-09T02:26:10.858Z,74.70
2017-11-09T02:28:37.795Z,74.70
2017-11-09T02:31:03.983Z,74.60
2017-11-09T02:33:30.904Z,74.20
2017-11-09T02:35:57.075Z,74.00
2017-11-09T02:38:24.024Z,74.60
2017-11-09T02:40:50.238Z,74.40
2017-11-09T02:43:17.176Z,75.80
2017-11-09T02:45:44.125Z,74.50
2017-11-09T02:48:10.322Z,74.40
2017-11-09T02:50:36.499Z,73.50
2017-11-09T02:53:02.702Z,73.70
2017-11-09T02:55:28.877Z,73.90
2017-11-09T02:57:55.809Z,73.60
2017-11-09T03:00:21.996Z,73.60
2017-11-09T03:02:48.175Z,73.70
2017-11-09T03:05:14.366Z,72.80
2017-11-09T03:07:40.810Z,72.90
2017-11-09T03:10:06.988Z,72.10
2017-11-09T03:12:33.157Z,72.90
2017-11-09T03:15:01.166Z,73.30
2017-11-09T03:17:27.351Z,73.20
2017-11-09T03:19:54.245Z,73.10
2017-11-09T03:22:20.446Z,73.00
2017-11-09T03:24:46.627Z,72.40
2017-11-09T03:27:12.801Z,72.30
2017-11-09T03:29:39.717Z,71.90
2017-11-09T03:32:05.898Z,71.50
2017-11-09T03:34:32.078Z,69.20
2017-11-09T03:36:58.261Z,71.00
2017-11-09T03:39:25.171Z,71.50
2017-11-09T03:41:52.860Z,72.40
2017-11-09T03:44:19.803Z,72.60
2017-11-09T03:46:45.974Z,72.50
2017-11-09T03:49:12.169Z,69.50
2017-11-09T03:51:39.093Z,71.00
2017-11-09T03:54:05.290Z,70.90
2017-11-09T03:56:31.454Z,70.80
2017-11-09T03:58:57.650Z,71.50
2017-11-09T04:01:23.823Z,71.90
2017-11-09T04:03:50.006Z,72.10
2017-11-09T04:06:16.947Z,70.40
2017-11-09T04:08:43.877Z,71.20
2017-11-09T04:11:10.046Z,71.10
2017-11-09T04:13:37.773Z,72.10
2017-11-09T04:16:04.838Z,72.00
2017-11-09T04:18:31.034Z,71.60
2017-11-09T04:20:57.221Z,72.10
2017-11-09T04:23:23.423Z,72.90
2017-11-09T04:25:49.615Z,72.70
2017-11-09T04:28:15.792Z,72.40
2017-11-09T04:30:41.977Z,72.60
2017-11-09T04:33:08.162Z,72.60
2017-11-09T04:35:35.109Z,72.50
2017-11-09T04:38:01.282Z,72.40
2017-11-09T04:40:28.200Z,71.60
2017-11-09T04:42:54.394Z,71.60
2017-11-09T04:45:20.564Z,71.80
2017-11-09T04:47:46.758Z,71.40
2017-11-09T04:50:12.966Z,71.50
2017-11-09T04:52:39.150Z,71.50
2017-11-09T04:55:05.335Z,72.20
2017-11-09T04:57:31.553Z,70.20
2017-11-09T04:59:57.724Z,70.10
2017-11-09T05:02:23.901Z,69.70
2017-11-09T05:04:50.105Z,71.30
2017-11-09T05:07:16.276Z,72.00
2017-11-09T05:09:42.474Z,71.90
2017-11-09T05:12:09.564Z,72.50
2017-11-09T05:14:35.754Z,71.40
2017-11-09T05:17:02.257Z,71.20
2017-11-09T05:19:30.096Z,69.90
2017-11-09T05:21:56.286Z,69.90
2017-11-09T05:24:22.450Z,71.00
2017-11-09T05:26:48.678Z,69.00
2017-11-09T05:29:14.850Z,69.30
2017-11-09T05:31:41.763Z,72.10
2017-11-09T05:34:07.971Z,71.90
2017-11-09T05:36:34.169Z,69.60
2017-11-09T05:39:00.347Z,69.60
2017-11-09T05:41:26.514Z,70.10
2017-11-09T05:43:52.687Z,70.50
2017-11-09T05:46:18.886Z,69.70
2017-11-09T05:48:45.058Z,70.00
2017-11-09T05:51:11.971Z,72.10
2017-11-09T05:53:39.638Z,71.20
2017-11-09T05:56:05.830Z,71.10
2017-11-09T05:58:32.006Z,70.30
2017-11-09T06:00:58.950Z,72.40
2017-11-09T06:03:25.138Z,72.40
2017-11-09T06:05:51.325Z,70.70
2017-11-09T06:08:17.533Z,71.00
2017-11-09T06:10:43.769Z,71.60
2017-11-09T06:13:09.931Z,71.00
2017-11-09T06:15:36.112Z,71.70
2017-11-09T06:18:02.374Z,71.70
2017-11-09T06:20:28.570Z,72.60
2017-11-09T06:22:54.750Z,71.70
2017-11-09T06:25:20.927Z,72.20
2017-11-09T06:27:47.846Z,72.40
2017-11-09T06:30:14.014Z,72.30
2017-11-09T06:32:40.210Z,72.90
2017-11-09T06:35:06.383Z,72.30
2017-11-09T06:37:33.318Z,73.60
2017-11-09T06:40:00.255Z,73.30
2017-11-09T06:42:26.421Z,73.30
2017-11-09T06:44:52.606Z,72.60
2017-11-09T06:47:18.845Z,71.10
2017-11-09T06:49:45.082Z,70.40
2017-11-09T06:52:11.249Z,71.70
2017-11-09T06:54:37.465Z,72.20
2017-11-09T06:57:04.375Z,72.20
2017-11-09T06:59:30.538Z,72.10
2017-11-09T07:01:56.722Z,72.10
2017-11-09T07:04:22.895Z,72.00
2017-11-09T07:06:50.578Z,72.00
2017-11-09T07:09:16.751Z,71.90
2017-11-09T07:11:42.918Z,71.10
2017-11-09T07:14:09.100Z,70.40
2017-11-09T07:16:36.062Z,71.00
2017-11-09T07:19:02.509Z,71.20
2017-11-09T07:21:28.686Z,70.40
2017-11-09T07:23:54.918Z,70.60
2017-11-09T07:26:21.093Z,71.20
2017-11-09T07:28:47.274Z,70.90
2017-11-09T07:31:13.493Z,72.30
2017-11-09T07:33:39.674Z,72.60
2017-11-09T07:36:05.855Z,72.70
2017-11-09T07:38:32.034Z,72.40
2017-11-09T07:40:58.210Z,73.30
2017-11-09T07:43:24.390Z,71.40
2017-11-09T07:45:50.602Z,71.90
2017-11-09T07:48:16.764Z,73.30
2017-11-09T07:50:42.943Z,72.50
2017-11-09T07:53:09.131Z,72.10
2017-11-09T07:55:36.068Z,71.60
2017-11-09T07:58:02.252Z,71.60
2017-11-09T08:00:28.455Z,72.40
2017-11-09T08:02:54.634Z,73.80
2017-11-09T08:05:20.806Z,72.10
2017-11-09T08:07:47.031Z,72.50
2017-11-09T08:10:13.986Z,72.20
2017-11-09T08:12:40.192Z,72.10
2017-11-09T08:15:06.361Z,72.20
2017-11-09T08:17:32.538Z,72.40
2017-11-09T08:19:58.783Z,72.10
2017-11-09T08:22:24.982Z,72.10
2017-11-09T08:24:55.534Z,72.20
2017-11-09T08:27:24.403Z,73.00
2017-11-09T08:29:53.335Z,74.50
2017-11-09T08:32:22.411Z,74.40
2017-11-09T08:34:49.313Z,74.50
2017-11-09T08:37:15.542Z,75.10
2017-11-09T08:39:41.721Z,73.30
2017-11-09T08:42:07.911Z,73.10
2017-11-09T08:44:34.110Z,73.50
2017-11-09T08:47:00.298Z,71.70
2017-11-09T08:49:26.486Z,71.60
2017-11-09T08:51:52.658Z,70.90
2017-11-09T08:54:18.853Z,70.90
2017-11-09T08:56:45.118Z,71.20
2017-11-09T08:59:11.337Z,71.20
2017-11-09T09:01:37.518Z,71.10
2017-11-09T09:04:04.472Z,71.40
2017-11-09T09:06:30.662Z,71.40
2017-11-09T09:08:56.841Z,71.60
2017-11-09T09:11:24.525Z,71.90
2017-11-09T09:13:51.485Z,72.00
2017-11-09T09:16:17.698Z,71.90
2017-11-09T09:18:44.618Z,72.80
2017-11-09T09:21:14.010Z,72.10
2017-11-09T09:23:40.194Z,72.10
2017-11-09T09:26:07.858Z,72.50
2017-11-09T09:28:35.728Z,72.70
2017-11-09T09:31:02.736Z,72.70
2017-11-09T09:33:33.509Z,72.60
2017-11-09T09:36:02.191Z,73.30
2017-11-09T09:38:36.715Z,72.60
2017-11-09T09:41:03.668Z,72.80
2017-11-09T09:43:29.870Z,72.70
2017-11-09T09:45:56.063Z,72.90
2017-11-09T09:48:22.295Z,72.80
2017-11-09T09:50:49.242Z,72.70
2017-11-09T09:53:16.154Z,72.60
2017-11-09T09:55:42.374Z,72.50
2017-11-09T09:58:08.597Z,72.40
2017-11-09T10:00:34.791Z,72.40
2017-11-09T10:03:01.737Z,71.80
2017-11-09T10:05:28.665Z,71.80
2017-11-09T10:07:54.854Z,71.80
2017-11-09T10:10:21.064Z,72.10
2017-11-09T10:12:47.266Z,71.90
2017-11-09T10:15:14.241Z,72.10
2017-11-09T10:17:41.185Z,72.80
2017-11-09T10:20:08.108Z,72.40
2017-11-09T10:22:34.553Z,72.30
2017-11-09T10:25:00.762Z,72.40
2017-11-09T10:27:26.927Z,72.20
2017-11-09T10:29:53.854Z,72.20
2017-11-09T10:32:20.101Z,72.20
2017-11-09T10:34:46.278Z,72.30
2017-11-09T10:37:13.208Z,72.40
2017-11-09T10:39:39.381Z,72.60
2017-11-09T10:42:05.562Z,72.30
2017-11-09T10:44:31.786Z,72.10
2017-11-09T10:46:58.024Z,72.10
2017-11-09T10:49:24.218Z,72.20
2017-11-09T10:51:50.443Z,72.30
2017-11-09T10:54:16.683Z,72.50
2017-11-09T10:56:42.867Z,72.10
2017-11-09T10:59:09.053Z,72.50
2017-11-09T11:01:35.258Z,72.40
2017-11-09T11:04:02.161Z,72.60
2017-11-09T11:06:28.334Z,72.50
2017-11-09T11:08:54.584Z,73.00
2017-11-09T11:11:21.516Z,72.00
2017-11-09T11:13:47.721Z,71.90
2017-11-09T11:16:13.909Z,72.70
2017-11-09T11:18:40.822Z,72.30
2017-11-09T11:21:07.014Z,72.20
2017-11-09T11:23:33.276Z,72.50
2017-11-09T11:25:59.455Z,72.60
2017-11-09T11:28:26.373Z,73.10
2017-11-09T11:30:52.558Z,73.10
2017-11-09T11:33:18.729Z,72.90
2017-11-09T11:35:44.945Z,72.70
2017-11-09T11:38:11.165Z,72.70
2017-11-09T11:40:37.351Z,72.80
2017-11-09T11:43:03.564Z,72.40
2017-11-09T11:45:29.794Z,72.10
2017-11-09T11:47:58.939Z,71.60
2017-11-09T11:50:25.117Z,71.30
2017-11-09T11:52:51.302Z,71.30
2017-11-09T11:55:17.519Z,71.40
2017-11-09T11:57:43.725Z,70.90
2017-11-09T12:00:09.922Z,70.60
2017-11-09T12:02:36.831Z,70.90
2017-11-09T12:05:03.035Z,70.80
2017-11-09T12:07:29.241Z,69.80
2017-11-09T12:09:55.426Z,70.20
2017-11-09T12:12:23.383Z,69.20
2017-11-09T12:14:49.598Z,69.10
2017-11-09T12:17:15.763Z,69.50
2017-11-09T12:19:41.928Z,69.90
2017-11-09T12:22:08.947Z,69.80
2017-11-09T12:24:35.206Z,69.90
2017-11-09T12:27:02.127Z,69.90
2017-11-09T12:29:28.380Z,69.90
2017-11-09T12:31:55.350Z,69.80
2017-11-09T12:34:21.553Z,69.80
2017-11-09T12:36:47.789Z,70.10
2017-11-09T12:39:13.999Z,70.30
2017-11-09T12:41:40.185Z,70.10
2017-11-09T12:44:06.378Z,70.10
2017-11-09T12:46:32.577Z,70.20
2017-11-09T12:48:58.810Z,70.10
2017-11-09T12:51:25.748Z,69.70
2017-11-09T12:53:51.952Z,69.60
2017-11-09T12:56:18.215Z,70.00
2017-11-09T12:58:44.459Z,69.60
2017-11-09T13:01:11.362Z,69.30
2017-11-09T13:03:37.546Z,69.20
2017-11-09T13:06:03.741Z,69.10
2017-11-09T13:08:29.932Z,68.90
2017-11-09T13:10:56.126Z,68.80
2017-11-09T13:13:22.293Z,68.70
2017-11-09T13:15:48.484Z,68.90
2017-11-09T13:18:15.413Z,69.20
2017-11-09T13:20:41.658Z,69.20
2017-11-09T13:23:07.845Z,69.30
2017-11-09T13:25:34.178Z,69.20
2017-11-09T13:28:00.382Z,69.40
2017-11-09T13:30:26.596Z,69.60
2017-11-09T13:32:52.798Z,69.70
2017-11-09T13:35:19.036Z,69.00
2017-11-09T13:37:45.207Z,69.00
2017-11-09T13:40:12.118Z,69.00
2017-11-09T13:42:38.320Z,68.90
2017-11-09T13:45:04.575Z,69.00
2017-11-09T13:47:30.738Z,69.30
2017-11-09T13:49:56.939Z,69.40
2017-11-09T13:52:23.099Z,69.30
2017-11-09T13:54:49.269Z,69.30
2017-11-09T13:57:15.468Z,69.20
2017-11-09T13:59:41.647Z,69.40
2017-11-09T14:02:08.596Z,69.40
2017-11-09T14:04:34.853Z,69.20
2017-11-09T14:07:01.036Z,69.40
2017-11-09T14:09:27.205Z,69.40
2017-11-09T14:11:54.117Z,69.70
2017-11-09T14:14:20.280Z,69.70
2017-11-09T14:16:46.457Z,69.70
2017-11-09T14:19:12.633Z,70.10
2017-11-09T14:21:38.826Z,70.00
2017-11-09T14:24:05.016Z,70.10
2017-11-09T14:26:32.096Z,70.70
2017-11-09T14:28:58.301Z,70.10
2017-11-09T14:31:24.511Z,70.10
2017-11-09T14:33:50.754Z,69.60
2017-11-09T14:36:16.926Z,70.40
2017-11-09T14:38:43.103Z,69.40
2017-11-09T14:41:09.350Z,69.50
2017-11-09T14:43:35.518Z,69.70
2017-11-09T14:46:02.439Z,69.80
2017-11-09T14:48:28.650Z,69.80
2017-11-09T14:50:54.828Z,70.30
2017-11-09T14:53:21.722Z,70.00
2017-11-09T14:55:47.912Z,69.90
2017-11-09T14:58:14.812Z,70.00
2017-11-09T15:00:41.018Z,70.00
2017-11-09T15:03:07.181Z,70.10
2017-11-09T15:05:33.409Z,70.20
2017-11-09T15:07:59.578Z,70.00
2017-11-09T15:10:25.839Z,70.00
2017-11-09T15:12:52.027Z,70.00
2017-11-09T15:15:18.211Z,70.20
2017-11-09T15:17:44.460Z,70.40
2017-11-09T15:20:10.639Z,70.50
2017-11-09T15:22:37.570Z,70.70
2017-11-09T15:25:03.809Z,70.50
2017-11-09T15:27:30.064Z,70.60
2017-11-09T15:29:57.040Z,70.90
2017-11-09T15:32:24.174Z,70.90
2017-11-09T15:34:51.160Z,70.90
2017-11-09T15:37:17.377Z,70.60
2017-11-09T15:39:44.315Z,71.10
2017-11-09T15:42:11.270Z,71.60
2017-11-09T15:44:37.450Z,70.90
2017-11-09T15:47:03.627Z,71.00
2017-11-09T15:49:30.546Z,71.30
2017-11-09T15:51:56.704Z,71.20
2017-11-09T15:54:22.919Z,71.30
2017-11-09T15:56:49.104Z,71.40
2017-11-09T15:59:15.286Z,71.30
2017-11-09T16:01:41.502Z,71.50
2017-11-09T16:04:07.698Z,71.40
2017-11-09T16:06:37.503Z,71.50
2017-11-09T16:09:04.430Z,72.10
2017-11-09T16:11:30.618Z,71.50
2017-11-09T16:13:56.833Z,71.60
2017-11-09T16:16:23.750Z,71.70
2017-11-09T16:18:49.919Z,71.60
2017-11-09T16:21:16.871Z,71.90
2017-11-09T16:23:43.094Z,71.60
2017-11-09T16:26:10.003Z,71.70
2017-11-09T16:28:36.370Z,71.60
2017-11-09T16:31:03.332Z,71.70
2017-11-09T16:33:29.523Z,71.70
2017-11-09T16:35:55.774Z,72.50
2017-11-09T16:38:21.979Z,71.70
2017-11-09T16:40:48.182Z,71.70
2017-11-09T16:43:14.371Z,71.90
2017-11-09T16:45:40.600Z,71.50
2017-11-09T16:48:06.781Z,71.50
2017-11-09T16:50:32.960Z,71.10
2017-11-09T16:53:02.130Z,70.80
2017-11-09T16:55:28.291Z,71.20
2017-11-09T16:57:54.486Z,71.30
2017-11-09T17:00:21.471Z,72.70
2017-11-09T17:02:47.673Z,72.60
2017-11-09T17:05:14.602Z,72.50
2017-11-09T17:07:40.967Z,72.40
2017-11-09T17:10:07.278Z,72.20
2017-11-09T17:12:33.535Z,71.60
2017-11-09T17:14:59.752Z,71.10
2017-11-09T17:17:26.682Z,71.00
2017-11-09T17:19:53.021Z,70.90
2017-11-09T17:22:20.086Z,71.30
2017-11-09T17:24:47.031Z,70.10
2017-11-09T17:27:13.977Z,70.00
2017-11-09T17:29:41.177Z,70.10
2017-11-09T17:32:07.380Z,70.10
2017-11-09T17:34:34.307Z,70.50
2017-11-09T17:37:00.497Z,70.40
2017-11-09T17:39:26.713Z,70.40
2017-11-09T17:41:57.561Z,71.60
2017-11-09T17:44:24.527Z,72.00
2017-11-09T17:46:50.693Z,71.90
2017-11-09T17:49:16.870Z,72.20
2017-11-09T17:51:43.119Z,72.50
2017-11-09T17:54:09.341Z,73.70
2017-11-09T17:56:35.552Z,72.90
2017-11-09T17:59:01.746Z,72.70
2017-11-09T18:01:27.934Z,74.00
2017-11-09T18:03:54.877Z,73.50
2017-11-09T18:06:21.805Z,73.50
2017-11-09T18:08:48.048Z,74.10
2017-11-09T18:11:15.003Z,74.10
2017-11-09T18:13:41.965Z,74.10
2017-11-09T18:16:08.886Z,74.10
2017-11-09T18:18:35.108Z,74.00
2017-11-09T18:21:01.354Z,74.30
2017-11-09T18:23:27.557Z,74.60
2017-11-09T18:25:53.750Z,74.80
2017-11-09T18:28:20.722Z,75.60
2017-11-09T18:30:46.965Z,75.50
2017-11-09T18:33:13.161Z,76.00
2017-11-09T18:35:39.374Z,76.40
2017-11-09T18:38:05.582Z,76.90
2017-11-09T18:40:31.763Z,76.90
2017-11-09T18:42:59.501Z,77.80
2017-11-09T18:45:25.694Z,77.70
2017-11-09T18:47:51.889Z,78.10
2017-11-09T18:50:18.857Z,78.70
2017-11-09T18:52:45.806Z,79.30
2017-11-09T18:55:12.741Z,78.90
2017-11-09T18:57:38.961Z,78.80
2017-11-09T19:00:05.146Z,79.20
2017-11-09T19:02:31.330Z,79.10
2017-11-09T19:04:57.541Z,79.10
2017-11-09T19:07:23.730Z,78.80
2017-11-09T19:09:49.906Z,78.70
2017-11-09T19:12:16.158Z,78.70
2017-11-09T19:14:42.332Z,78.50
2017-11-09T19:17:08.509Z,78.70
2017-11-09T19:19:34.736Z,78.60
2017-11-09T19:22:00.922Z,78.40
2017-11-09T19:24:27.093Z,78.70
2017-11-09T19:26:54.187Z,78.50
2017-11-09T19:29:20.396Z,78.60
2017-11-09T19:31:46.913Z,78.70
2017-11-09T19:34:13.207Z,78.60
2017-11-09T19:36:39.389Z,78.40
2017-11-09T19:39:05.584Z,78.50
2017-11-09T19:41:31.798Z,78.70
2017-11-09T19:43:57.987Z,79.10
2017-11-09T19:46:24.164Z,79.60
2017-11-09T19:48:50.382Z,79.70
2017-11-09T19:51:16.559Z,79.80
2017-11-09T19:53:43.469Z,80.10
2017-11-09T19:56:09.666Z,79.60
2017-11-09T19:58:35.852Z,79.90
2017-11-09T20:01:02.035Z,80.10
2017-11-09T20:03:29.122Z,80.40
2017-11-09T20:05:55.296Z,80.40
2017-11-09T20:08:22.219Z,81.00
2017-11-09T20:10:48.442Z,81.00
2017-11-09T20:13:14.617Z,81.30
2017-11-09T20:15:41.545Z,81.30
2017-11-09T20:18:07.746Z,81.70
2017-11-09T20:20:33.917Z,82.00
2017-11-09T20:23:01.605Z,81.90
2017-11-09T20:25:28.567Z,82.30
2017-11-09T20:27:55.489Z,82.30
2017-11-09T20:30:22.443Z,82.20
2017-11-09T20:32:48.715Z,82.20
2017-11-09T20:35:15.127Z,82.50
2017-11-09T20:37:41.448Z,82.60
2017-11-09T20:40:07.709Z,82.60
2017-11-09T20:42:34.626Z,82.60
2017-11-09T20:45:00.814Z,82.50
2017-11-09T20:47:27.906Z,82.60
2017-11-09T20:49:55.069Z,82.70
2017-11-09T20:52:22.008Z,82.90
2017-11-09T20:54:48.233Z,82.80
2017-11-09T20:57:14.413Z,81.80
2017-11-09T20:59:40.592Z,83.30
2017-11-09T21:02:06.811Z,82.40
2017-11-09T21:04:32.994Z,82.50
2017-11-09T21:06:59.170Z,82.60
2017-11-09T21:09:26.110Z,82.40
2017-11-09T21:11:53.026Z,82.50
2017-11-09T21:14:19.190Z,82.40
2017-11-09T21:16:46.963Z,82.50
2017-11-09T21:19:13.906Z,82.60
2017-11-09T21:21:40.825Z,82.70
2017-11-09T21:24:07.055Z,82.60
2017-11-09T21:26:33.238Z,82.70
2017-11-09T21:29:00.150Z,82.90
2017-11-09T21:31:27.204Z,82.80
2017-11-09T21:33:53.610Z,82.80
2017-11-09T21:36:19.789Z,83.10
2017-11-09T21:38:46.767Z,83.10
2017-11-09T21:41:12.935Z,82.60
2017-11-09T21:43:39.118Z,83.00
2017-11-09T21:46:05.354Z,83.00
2017-11-09T21:48:32.270Z,82.90
2017-11-09T21:50:58.479Z,82.80
2017-11-09T21:53:24.659Z,82.80
2017-11-09T21:55:51.574Z,83.30
2017-11-09T21:58:17.745Z,82.60
2017-11-09T22:00:44.702Z,82.90
2017-11-09T22:03:11.645Z,83.20
2017-11-09T22:05:37.821Z,83.00
2017-11-09T22:08:04.842Z,83.20
2017-11-09T22:10:31.750Z,82.00
2017-11-09T22:12:57.943Z,81.90
2017-11-09T22:15:24.139Z,81.80
2017-11-09T22:17:51.790Z,81.70
2017-11-09T22:20:17.974Z,81.70
2017-11-09T22:22:44.154Z,81.70
2017-11-09T22:25:10.346Z,81.80
2017-11-09T22:27:37.249Z,81.70
2017-11-09T22:30:04.285Z,81.70
2017-11-09T22:32:30.468Z,81.70
2017-11-09T22:34:57.470Z,81.40
2017-11-09T22:37:24.623Z,81.30
2017-11-09T22:39:50.803Z,81.50
2017-11-09T22:42:17.729Z,82.00
2017-11-09T22:44:44.722Z,81.80
2017-11-09T22:47:11.622Z,81.70
2017-11-09T22:49:37.798Z,81.60
2017-11-09T22:52:05.606Z,82.00
2017-11-09T22:54:31.775Z,82.00
2017-11-09T22:56:58.711Z,82.10
2017-11-09T22:59:24.902Z,82.10
2017-11-09T23:01:51.098Z,82.00
2017-11-09T23:04:17.270Z,82.10
2017-11-09T23:06:44.365Z,83.00
2017-11-09T23:09:11.311Z,82.90
2017-11-09T23:11:37.508Z,82.20
2017-11-09T23:14:03.722Z,82.00
2017-11-09T23:16:29.938Z,81.80
2017-11-09T23:18:56.101Z,81.80
2017-11-09T23:21:22.324Z,82.50
2017-11-09T23:23:49.251Z,81.70
2017-11-09T23:26:15.438Z,81.70
2017-11-09T23:28:42.505Z,81.60
2017-11-09T23:31:08.682Z,81.30
2017-11-09T23:33:35.590Z,81.80
2017-11-09T23:36:02.735Z,81.10
2017-11-09T23:38:28.970Z,81.20
2017-11-09T23:40:55.155Z,81.20
2017-11-09T23:43:22.988Z,80.60
2017-11-09T23:45:49.151Z,81.00
2017-11-09T23:48:16.075Z,81.40
2017-11-09T23:50:43.122Z,81.30
2017-11-09T23:53:09.317Z,81.20
2017-11-09T23:55:35.496Z,81.20
2017-11-09T23:58:01.683Z,81.10
